Time;durP1;ratioP1;P1;durP2;ratioP2;P2;SDS_P1;SDS_P2;PMS_P1;PMS_P2;Temp;Humidity;BMP_temperature;BMP_pressure;BME280_temperature;BME280_humidity;BME280_pressure;Samples;Min_cycle;Max_cycle;Signal;HPM_P1;HPM_P2
2021/04/20 00:00:47;;;;;;;4.30;2.85;;;20.40;47.00;;;;;;5092363;28;20042;-38
2021/04/20 00:03:14;;;;;;;3.58;2.83;;;20.40;47.00;;;;;;5092738;28;20109;-43
2021/04/20 00:05:39;;;;;;;3.78;3.15;;;20.40;46.90;;;;;;5092376;28;20459;-49
2021/04/20 00:08:05;;;;;;;3.58;2.75;;;20.40;46.90;;;;;;5092557;28;20060;-43
2021/04/20 00:10:31;;;;;;;6.05;3.35;;;20.40;46.90;;;;;;5092615;28;20055;-43
2021/04/20 00:12:57;;;;;;;5.35;3.53;;;20.40;46.90;;;;;;5091825;28;20096;-42
2021/04/20 00:15:30;;;;;;;4.43;3.20;;;20.40;46.80;;;;;;5092575;28;20031;-43
2021/04/20 00:17:59;;;;;;;4.78;3.22;;;20.40;46.80;;;;;;5091856;28;20070;-43
2021/04/20 00:20:25;;;;;;;3.65;2.92;;;20.40;46.80;;;;;;5092827;28;20122;-42
2021/04/20 00:22:51;;;;;;;3.95;2.90;;;20.40;46.80;;;;;;5092016;28;20443;-40
2021/04/20 00:25:18;;;;;;;3.50;3.13;;;20.50;46.80;;;;;;5092055;28;20106;-43
2021/04/20 00:27:43;;;;;;;4.32;3.17;;;20.40;46.70;;;;;;5091960;28;20116;-44
2021/04/20 00:30:10;;;;;;;4.00;2.92;;;20.50;46.70;;;;;;5092304;28;20111;-43
2021/04/20 00:32:36;;;;;;;4.28;2.90;;;20.40;46.70;;;;;;5092197;28;20424;-43
2021/04/20 00:35:04;;;;;;;3.92;2.95;;;20.40;46.60;;;;;;5091578;28;20801;-43
2021/04/20 00:37:30;;;;;;;5.50;3.20;;;20.40;46.60;;;;;;5092267;28;20091;-43
2021/04/20 00:39:56;;;;;;;3.70;2.80;;;20.40;46.60;;;;;;5091499;28;20032;-43
2021/04/20 00:42:22;;;;;;;4.05;3.25;;;20.50;46.60;;;;;;5092432;28;20024;-43
2021/04/20 00:44:47;;;;;;;4.93;2.85;;;20.50;46.60;;;;;;5090625;28;20024;-46
2021/04/20 00:47:13;;;;;;;3.65;3.08;;;20.50;46.60;;;;;;5091945;28;20028;-43
2021/04/20 00:49:39;;;;;;;5.43;3.85;;;20.50;46.50;;;;;;5091865;28;20447;-43
2021/04/20 00:52:05;;;;;;;3.88;3.30;;;20.50;46.50;;;;;;5091711;28;20103;-48
2021/04/20 00:54:31;;;;;;;3.75;3.05;;;20.50;46.50;;;;;;5091630;28;20024;-44
2021/04/20 00:56:57;;;;;;;4.47;3.08;;;20.40;46.40;;;;;;5090192;28;20031;-42
2021/04/20 00:59:23;;;;;;;3.33;2.80;;;20.50;46.50;;;;;;5092251;28;20488;-42
2021/04/20 01:01:49;;;;;;;5.18;3.17;;;20.50;46.40;;;;;;5092165;28;20032;-43
2021/04/20 01:04:16;;;;;;;6.10;2.88;;;20.50;46.40;;;;;;5091741;28;20063;-43
2021/04/20 01:06:44;;;;;;;4.38;3.10;;;20.50;46.40;;;;;;5091435;28;20024;-47
2021/04/20 01:09:10;;;;;;;4.13;3.28;;;20.50;46.40;;;;;;5091787;28;20381;-44
2021/04/20 01:11:38;;;;;;;4.95;3.45;;;20.50;46.30;;;;;;5091817;28;20039;-44
2021/04/20 01:14:06;;;;;;;3.72;3.08;;;20.50;46.30;;;;;;5090807;28;20040;-42
2021/04/20 01:16:36;;;;;;;4.95;3.45;;;20.50;46.30;;;;;;5092135;28;20028;-42
2021/04/20 01:19:07;;;;;;;3.88;3.13;;;20.50;46.30;;;;;;5090899;28;20084;-42
2021/04/20 01:21:42;;;;;;;4.80;3.53;;;20.50;46.20;;;;;;5091581;28;20039;-42
2021/04/20 01:24:08;;;;;;;4.50;2.90;;;20.50;46.20;;;;;;5091052;28;20028;-43
2021/04/20 01:26:46;;;;;;;5.60;3.33;;;20.50;46.20;;;;;;5091363;28;20488;-43
2021/04/20 01:29:12;;;;;;;5.05;3.10;;;20.50;46.20;;;;;;5091305;28;20389;-44
2021/04/20 01:31:41;;;;;;;3.95;3.10;;;20.50;46.20;;;;;;5083893;28;20034;-44
2021/04/20 01:34:08;;;;;;;4.85;2.63;;;20.50;46.10;;;;;;5091194;28;20103;-42
2021/04/20 01:36:34;;;;;;;3.45;2.63;;;20.50;46.10;;;;;;5091197;28;20157;-45
2021/04/20 01:39:00;;;;;;;5.03;3.17;;;20.40;46.10;;;;;;5090522;28;20055;-43
2021/04/20 01:41:28;;;;;;;3.88;2.90;;;20.50;46.20;;;;;;5091328;28;20028;-43
2021/04/20 01:43:56;;;;;;;3.60;2.70;;;20.50;46.10;;;;;;5089213;28;20040;-42
2021/04/20 01:46:22;;;;;;;3.75;2.85;;;20.50;46.10;;;;;;5091356;28;20024;-41
2021/04/20 01:48:49;;;;;;;3.75;2.70;;;20.50;46.00;;;;;;5090695;28;20032;-40
2021/04/20 01:51:16;;;;;;;4.13;3.25;;;20.50;46.00;;;;;;5091397;28;20073;-43
2021/04/20 01:53:42;;;;;;;4.32;3.20;;;20.50;46.10;;;;;;5091839;28;20143;-50
2021/04/20 01:56:09;;;;;;;3.65;3.08;;;20.50;46.00;;;;;;5090693;28;20068;-42
2021/04/20 01:58:38;;;;;;;2.85;2.53;;;20.50;46.00;;;;;;5091120;28;20024;-42
2021/04/20 02:01:11;;;;;;;3.35;2.85;;;20.50;46.00;;;;;;5090524;28;20032;-42
2021/04/20 02:03:37;;;;;;;5.38;3.33;;;20.50;46.00;;;;;;5083062;28;20044;-44
2021/04/20 02:06:07;;;;;;;3.67;2.60;;;20.50;46.00;;;;;;5090644;28;20012;-43
2021/04/20 02:08:33;;;;;;;4.05;3.22;;;20.50;46.00;;;;;;5093714;28;20054;-46
2021/04/20 02:11:01;;;;;;;6.78;2.83;;;20.50;46.00;;;;;;5093900;28;20035;-42
2021/04/20 02:13:27;;;;;;;2.90;2.40;;;20.50;46.60;;;;;;5094562;28;20423;-43
2021/04/20 02:15:53;;;;;;;4.72;2.78;;;20.50;46.00;;;;;;5085916;28;20215;-42
2021/04/20 02:18:20;;;;;;;4.25;2.97;;;20.50;46.00;;;;;;5094928;28;20036;-45
2021/04/20 02:20:46;;;;;;;3.22;2.88;;;20.50;46.00;;;;;;5094249;28;20107;-50
2021/04/20 02:23:14;;;;;;;3.67;2.83;;;20.50;46.00;;;;;;5094781;28;20020;-45
2021/04/20 02:25:42;;;;;;;4.80;2.65;;;20.50;45.90;;;;;;5095115;28;20032;-46
2021/04/20 02:28:08;;;;;;;3.85;2.92;;;20.50;45.80;;;;;;5093948;28;20032;-42
2021/04/20 02:30:35;;;;;;;2.95;2.58;;;20.50;45.90;;;;;;5094468;28;20047;-48
2021/04/20 02:33:00;;;;;;;3.67;2.70;;;20.50;45.90;;;;;;5093891;28;20032;-41
2021/04/20 02:35:28;;;;;;;4.00;3.35;;;20.50;45.80;;;;;;5094225;28;20050;-43
2021/04/20 02:37:55;;;;;;;4.93;2.97;;;20.50;45.90;;;;;;5093873;28;20039;-47
2021/04/20 02:40:23;;;;;;;3.20;2.50;;;20.50;45.80;;;;;;5094348;28;20465;-48
2021/04/20 02:42:52;;;;;;;3.85;2.80;;;20.50;45.80;;;;;;5086163;28;20028;-44
2021/04/20 02:45:21;;;;;;;2.97;2.45;;;20.50;45.80;;;;;;5094610;28;20056;-46
2021/04/20 02:47:47;;;;;;;3.28;2.70;;;20.50;45.80;;;;;;5093641;28;20039;-50
2021/04/20 02:50:19;;;;;;;3.10;2.60;;;20.50;45.80;;;;;;5094224;28;20028;-43
2021/04/20 02:52:48;;;;;;;3.33;2.40;;;20.50;45.80;;;;;;5094079;28;20058;-48
2021/04/20 02:55:14;;;;;;;3.03;2.38;;;20.50;45.80;;;;;;5094399;28;20032;-43
2021/04/20 02:57:43;;;;;;;3.65;2.83;;;20.60;45.80;;;;;;5094089;28;20074;-42
2021/04/20 03:00:13;;;;;;;3.00;2.45;;;20.60;45.70;;;;;;5093621;28;20040;-42
2021/04/20 03:02:41;;;;;;;3.10;2.30;;;20.60;45.80;;;;;;5093957;28;20115;-43
2021/04/20 03:05:17;;;;;;;3.47;2.58;;;20.50;45.70;;;;;;5093134;28;20016;-43
2021/04/20 03:07:44;;;;;;;3.15;2.30;;;20.50;45.60;;;;;;5092714;28;20055;-44
2021/04/20 03:10:12;;;;;;;3.05;2.65;;;20.60;45.70;;;;;;5093188;28;20043;-45
2021/04/20 03:12:39;;;;;;;2.80;2.28;;;20.50;45.60;;;;;;5092184;28;20032;-43
2021/04/20 03:15:07;;;;;;;3.55;2.55;;;20.60;45.70;;;;;;5092891;28;20111;-44
2021/04/20 03:17:33;;;;;;;3.05;2.38;;;20.60;45.70;;;;;;5093618;28;20404;-44
2021/04/20 03:19:58;;;;;;;3.58;3.10;;;20.50;45.60;;;;;;5092283;28;20107;-45
2021/04/20 03:22:25;;;;;;;3.92;2.80;;;20.50;45.60;;;;;;5093605;28;20149;-46
2021/04/20 03:25:06;;;;;;;2.97;2.33;;;20.60;45.60;;;;;;5093345;28;20373;-44
2021/04/20 03:27:33;;;;;;;2.93;2.67;;;20.60;45.60;;;;;;5088283;28;20066;-45
2021/04/20 03:29:59;;;;;;;3.47;2.17;;;20.60;45.50;;;;;;5086526;28;20040;-42
2021/04/20 03:32:28;;;;;;;2.60;2.22;;;20.60;45.60;;;;;;5086889;28;20358;-43
2021/04/20 03:35:05;;;;;;;2.75;2.15;;;20.60;45.50;;;;;;5084656;28;20039;-42
2021/04/20 03:37:36;;;;;;;2.95;2.42;;;20.60;45.50;;;;;;5088574;28;20020;-44
2021/04/20 03:40:09;;;;;;;3.47;2.85;;;20.60;45.50;;;;;;5085397;28;20423;-43
2021/04/20 03:42:40;;;;;;;3.47;2.42;;;20.60;45.60;;;;;;5087191;28;20074;-39
2021/04/20 03:45:12;;;;;;;3.05;2.50;;;20.60;45.50;;;;;;5083413;28;20107;-42
2021/04/20 03:47:41;;;;;;;;;;;20.60;45.50;;;;;;5089007;28;20044;-43
2021/04/20 03:50:13;;;;;;;3.85;2.40;;;20.60;45.50;;;;;;5084917;28;19908;-45
2021/04/20 03:52:52;;;;;;;3.30;2.60;;;20.60;45.60;;;;;;5086402;28;20039;-42
2021/04/20 03:55:22;;;;;;;2.90;2.42;;;20.60;45.50;;;;;;5088494;28;20064;-45
2021/04/20 03:57:49;;;;;;;3.03;2.55;;;20.60;45.50;;;;;;5088463;28;20381;-46
2021/04/20 04:00:16;;;;;;;3.08;2.38;;;20.60;45.50;;;;;;5087836;28;20165;-39
2021/04/20 04:02:45;;;;;;;3.38;2.80;;;20.60;45.50;;;;;;5083107;28;20118;-44
2021/04/20 04:05:16;;;;;;;3.90;2.55;;;20.60;45.40;;;;;;5085935;28;20028;-47
2021/04/20 04:07:43;;;;;;;3.13;2.50;;;20.60;45.50;;;;;;5088211;28;20128;-46
2021/04/20 04:10:10;;;;;;;3.67;2.80;;;20.60;45.50;;;;;;5085060;28;20558;-44
2021/04/20 04:12:39;;;;;;;3.63;2.58;;;20.60;45.50;;;;;;5085904;28;20157;-42
2021/04/20 04:15:08;;;;;;;3.55;2.80;;;20.60;45.50;;;;;;5084334;28;20020;-42
2021/04/20 04:17:36;;;;;;;3.28;2.28;;;20.60;45.40;;;;;;5086910;28;20032;-42
2021/04/20 04:20:04;;;;;;;3.45;2.70;;;20.60;45.50;;;;;;5084646;28;20470;-48
2021/04/20 04:22:37;;;;;;;3.58;2.80;;;20.60;45.40;;;;;;5090374;28;20024;-43
2021/04/20 04:25:07;;;;;;;3.30;2.72;;;20.60;45.50;;;;;;5086643;28;20024;-46
2021/04/20 04:27:39;;;;;;;3.40;2.70;;;20.60;45.40;;;;;;5086775;28;20591;-45
2021/04/20 04:30:08;;;;;;;4.30;2.45;;;20.60;45.40;;;;;;5082383;28;20033;-39
2021/04/20 04:32:36;;;;;;;3.65;2.80;;;20.60;45.40;;;;;;5085818;28;20036;-43
2021/04/20 04:35:04;;;;;;;2.63;2.38;;;20.60;45.40;;;;;;5085518;28;20385;-45
2021/04/20 04:37:32;;;;;;;4.85;2.78;;;20.60;45.40;;;;;;5091024;28;20028;-44
2021/04/20 04:39:58;;;;;;;3.30;2.80;;;20.60;45.40;;;;;;5088035;28;20028;-47
2021/04/20 04:42:24;;;;;;;4.05;2.50;;;20.60;45.40;;;;;;5082797;28;20035;-43
2021/04/20 04:44:50;;;;;;;3.60;2.70;;;20.60;45.40;;;;;;5089352;28;20393;-48
2021/04/20 04:47:16;;;;;;;3.40;2.33;;;20.60;45.40;;;;;;5085508;28;20031;-43
2021/04/20 04:49:41;;;;;;;2.97;2.50;;;20.60;45.40;;;;;;5087340;28;20032;-45
2021/04/20 04:52:08;;;;;;;4.30;3.08;;;20.60;45.40;;;;;;5091418;28;20024;-42
2021/04/20 04:54:34;;;;;;;3.55;2.42;;;20.60;45.40;;;;;;5092141;28;20058;-43
2021/04/20 04:57:01;;;;;;;3.33;2.67;;;20.60;45.40;;;;;;5091014;28;20036;-43
2021/04/20 04:59:28;;;;;;;3.75;2.60;;;20.70;45.40;;;;;;5091755;28;20078;-42
2021/04/20 05:01:56;;;;;;;4.15;2.45;;;20.60;45.30;;;;;;5091046;28;20032;-41
2021/04/20 05:04:25;;;;;;;3.20;2.70;;;20.60;45.40;;;;;;5092278;28;20482;-41
2021/04/20 05:06:52;;;;;;;2.78;2.47;;;20.70;45.50;;;;;;5090977;28;20028;-49
2021/04/20 05:09:20;;;;;;;3.60;2.60;;;20.60;45.30;;;;;;5091484;28;20554;-44
2021/04/20 05:11:48;;;;;;;3.38;2.20;;;20.60;45.30;;;;;;5091412;28;20473;-45
2021/04/20 05:14:16;;;;;;;3.72;2.45;;;20.60;45.40;;;;;;5082841;28;20024;-42
2021/04/20 05:16:45;;;;;;;2.50;2.30;;;20.70;45.50;;;;;;5091767;28;20020;-42
2021/04/20 05:19:13;;;;;;;6.03;2.83;;;20.70;45.50;;;;;;5083760;28;20038;-43
2021/04/20 05:21:39;;;;;;;3.85;2.60;;;20.70;45.90;;;;;;5091823;28;20036;-44
2021/04/20 05:24:06;;;;;;;5.00;2.88;;;20.70;45.90;;;;;;5090326;28;20032;-43
2021/04/20 05:26:32;;;;;;;5.20;2.20;;;20.70;45.90;;;;;;5089569;28;20060;-42
2021/04/20 05:28:58;;;;;;;9.52;2.28;;;20.70;45.90;;;;;;5090877;28;20066;-43
2021/04/20 05:31:25;;;;;;;3.55;2.58;;;20.70;45.90;;;;;;5090566;28;20416;-42
2021/04/20 05:34:04;;;;;;;4.05;2.63;;;20.70;45.90;;;;;;5090423;28;20032;-47
2021/04/20 05:36:31;;;;;;;3.17;2.42;;;20.70;45.90;;;;;;5091270;28;20035;-42
2021/04/20 05:38:58;;;;;;;5.50;2.92;;;20.70;45.90;;;;;;5090737;28;20024;-43
2021/04/20 05:41:29;;;;;;;7.60;2.67;;;20.80;45.90;;;;;;5092087;28;20039;-43
2021/04/20 05:43:57;;;;;;;8.47;2.80;;;20.80;46.30;;;;;;5094881;28;20047;-42
2021/04/20 05:46:23;;;;;;;10.88;3.25;;;20.80;46.50;;;;;;5095652;28;20038;-42
2021/04/20 05:48:52;;;;;;;7.97;2.50;;;20.70;46.50;;;;;;5094690;28;20370;-49
2021/04/20 05:51:19;;;;;;;4.35;3.00;;;20.80;46.60;;;;;;5095268;28;20144;-42
2021/04/20 05:53:46;;;;;;;8.63;3.22;;;20.80;46.80;;;;;;5095132;28;20043;-42
2021/04/20 05:56:14;;;;;;;9.48;3.78;;;20.80;47.00;;;;;;5094517;28;20119;-42
2021/04/20 05:58:40;;;;;;;8.23;3.55;;;20.80;46.70;;;;;;5095188;28;20036;-44
2021/04/20 06:01:06;;;;;;;7.05;3.15;;;20.80;46.70;;;;;;5094475;28;20081;-43
2021/04/20 06:03:33;;;;;;;11.38;3.22;;;20.80;46.60;;;;;;5094632;28;20044;-43
2021/04/20 06:06:02;;;;;;;11.60;3.70;;;20.80;46.60;;;;;;5094513;28;20050;-45
2021/04/20 06:08:31;;;;;;;7.60;4.35;;;20.80;46.50;;;;;;5095021;28;20028;-43
2021/04/20 06:10:58;;;;;;;9.15;4.40;;;20.70;46.10;;;;;;5094061;28;20079;-43
2021/04/20 06:13:26;;;;;;;18.42;13.18;;;20.70;46.30;;;;;;5094326;28;20090;-43
2021/04/20 06:15:52;;;;;;;25.45;15.18;;;19.60;40.70;;;;;;5094541;28;20054;-52
2021/04/20 06:18:18;;;;;;;20.73;15.55;;;17.40;44.60;;;;;;5094658;28;20038;-44
2021/04/20 06:20:45;;;;;;;24.80;16.50;;;16.40;47.30;;;;;;5094294;28;20122;-45
2021/04/20 06:23:11;;;;;;;27.20;17.27;;;16.00;48.60;;;;;;5094173;28;20020;-44
2021/04/20 06:25:37;;;;;;;24.13;16.65;;;15.70;49.30;;;;;;5094371;28;20036;-45
2021/04/20 06:28:03;;;;;;;23.45;17.00;;;15.60;49.90;;;;;;5093935;28;20443;-43
2021/04/20 06:30:29;;;;;;;26.27;17.02;;;15.40;50.50;;;;;;5094220;28;20085;-47
2021/04/20 06:32:55;;;;;;;24.55;16.67;;;15.20;51.10;;;;;;5093101;28;20040;-49
2021/04/20 06:35:22;;;;;;;23.70;16.23;;;15.10;51.30;;;;;;5094677;28;20031;-43
2021/04/20 06:37:50;;;;;;;19.23;14.25;;;15.20;51.70;;;;;;5094596;28;20099;-45
2021/04/20 06:40:28;;;;;;;19.83;14.27;;;15.70;50.50;;;;;;5093993;28;20031;-46
2021/04/20 06:42:59;;;;;;;18.65;14.35;;;16.80;48.00;;;;;;5093549;28;20028;-46
2021/04/20 06:45:36;;;;;;;19.90;12.38;;;17.30;46.50;;;;;;5086008;28;20028;-43
2021/04/20 06:48:23;;;;;;;18.25;13.75;;;17.60;45.90;;;;;;5093355;28;20028;-44
2021/04/20 06:50:54;;;;;;;21.92;14.18;;;17.70;45.50;;;;;;5094404;28;20093;-43
2021/04/20 06:53:25;;;;;;;17.60;13.00;;;17.70;45.50;;;;;;5094237;28;20024;-43
2021/04/20 06:56:28;;;;;;;18.08;11.15;;;17.50;46.10;;;;;;5093279;28;20083;-51
2021/04/20 06:59:01;;;;;;;;;;;17.90;45.60;;;;;;5093887;28;20057;-43
2021/04/20 07:01:44;;;;;;;13.10;8.82;;;18.50;45.00;;;;;;5094311;28;19958;-44
2021/04/20 07:04:36;;;;;;;14.80;9.60;;;18.80;44.50;;;;;;5093084;28;20124;-44
2021/04/20 07:07:23;;;;;;;10.85;8.13;;;18.90;44.20;;;;;;5080855;28;20044;-44
2021/04/20 07:09:57;;;;;;;11.20;8.00;;;19.10;44.10;;;;;;5077907;28;21003;-46
2021/04/20 07:12:23;;;;;;;11.27;7.07;;;19.20;44.20;;;;;;5077090;28;20036;-43
2021/04/20 07:14:52;;;;;;;8.60;6.20;;;19.30;44.20;;;;;;5093314;28;20024;-47
2021/04/20 07:17:26;;;;;;;10.57;5.97;;;19.40;44.30;;;;;;5093351;28;20060;-41
2021/04/20 07:20:01;;;;;;;9.25;5.32;;;19.40;44.30;;;;;;5092772;28;20079;-51
2021/04/20 07:22:55;;;;;;;8.18;5.30;;;19.50;44.40;;;;;;5090934;28;20070;-48
2021/04/20 07:25:48;;;;;;;6.82;4.63;;;19.50;44.40;;;;;;5085013;28;20028;-44
2021/04/20 07:28:20;;;;;;;7.65;5.07;;;19.60;44.40;;;;;;5092908;28;20491;-42
2021/04/20 07:31:13;;;;;;;5.05;4.18;;;19.70;44.50;;;;;;5092917;28;20115;-44
2021/04/20 07:34:07;;;;;;;6.25;4.35;;;19.70;44.40;;;;;;5090334;28;20089;-44
2021/04/20 07:37:11;;;;;;;6.45;4.03;;;19.70;44.40;;;;;;5093510;28;20186;-42
2021/04/20 07:39:56;;;;;;;5.13;3.60;;;19.80;44.50;;;;;;5093520;28;20060;-42
2021/04/20 07:42:32;;;;;;;4.63;3.55;;;19.80;44.50;;;;;;5093464;28;20480;-42
2021/04/20 07:45:19;;;;;;;5.18;4.07;;;19.80;44.50;;;;;;5092538;28;20020;-43
2021/04/20 07:47:52;;;;;;;5.47;3.70;;;19.90;44.60;;;;;;5085637;28;20035;-39
2021/04/20 07:50:27;;;;;;;5.13;3.45;;;19.90;44.60;;;;;;5092440;28;20051;-45
2021/04/20 07:53:11;;;;;;;5.68;3.97;;;19.90;44.60;;;;;;5092544;28;20027;-48
2021/04/20 07:55:46;;;;;;;4.72;3.40;;;19.90;44.60;;;;;;5092497;28;20066;-43
2021/04/20 07:58:16;;;;;;;3.85;3.17;;;20.00;44.70;;;;;;5091810;28;20093;-44
2021/04/20 08:01:01;;;;;;;4.80;3.42;;;20.00;44.70;;;;;;5093048;28;20032;-42
2021/04/20 08:03:49;;;;;;;4.75;3.50;;;20.00;44.70;;;;;;5091759;28;20047;-39
2021/04/20 08:06:20;;;;;;;6.38;3.08;;;20.10;44.70;;;;;;5091079;28;20088;-45
2021/04/20 08:09:02;;;;;;;4.88;3.33;;;20.00;44.70;;;;;;5092575;28;20020;-41
2021/04/20 08:11:40;;;;;;;5.50;3.13;;;20.10;44.70;;;;;;5085432;28;20111;-41
2021/04/20 08:14:15;;;;;;;4.00;3.42;;;20.10;44.80;;;;;;5089092;28;20033;-44
2021/04/20 08:17:06;;;;;;;5.22;3.53;;;20.10;44.80;;;;;;5092723;28;20077;-46
2021/04/20 08:19:42;;;;;;;5.85;3.10;;;20.20;44.90;;;;;;5091756;28;20111;-42
2021/04/20 08:22:12;;;;;;;5.75;2.95;;;20.20;44.90;;;;;;5091642;28;20462;-42
2021/04/20 08:24:56;;;;;;;4.20;3.22;;;20.20;44.90;;;;;;5090142;28;20081;-46
2021/04/20 08:27:40;;;;;;;4.80;3.38;;;20.20;44.90;;;;;;5087121;28;20034;-44
2021/04/20 08:30:13;;;;;;;3.38;2.85;;;20.20;44.90;;;;;;5091339;28;20497;-42
2021/04/20 08:32:42;;;;;;;4.13;3.17;;;20.20;45.00;;;;;;5090685;28;20502;-42
2021/04/20 08:35:16;;;;;;;5.82;3.58;;;20.30;45.00;;;;;;5089715;28;20035;-43
2021/04/20 08:38:04;;;;;;;4.70;3.08;;;20.30;45.00;;;;;;5092232;28;20036;-43
2021/04/20 08:41:04;;;;;;;5.55;3.05;;;20.30;45.00;;;;;;5086056;28;20036;-43
2021/04/20 08:44:10;;;;;;;3.38;2.90;;;20.30;45.00;;;;;;5092214;28;20046;-44
2021/04/20 08:47:03;;;;;;;4.00;3.25;;;20.30;45.10;;;;;;5051568;28;20044;-42
2021/04/20 08:49:45;;;;;;;5.22;3.20;;;20.30;45.10;;;;;;5092150;28;20078;-44
2021/04/20 08:52:21;;;;;;;3.63;2.92;;;20.30;45.10;;;;;;5090922;28;20127;-42
2021/04/20 08:55:02;;;;;;;4.80;3.13;;;20.30;45.10;;;;;;5091642;28;20083;-45
2021/04/20 08:57:53;;;;;;;5.30;3.15;;;20.40;45.10;;;;;;5091653;28;20024;-42
2021/04/20 09:00:37;;;;;;;5.35;2.90;;;20.40;45.10;;;;;;5087787;28;20036;-43
2021/04/20 09:03:14;;;;;;;4.28;3.08;;;20.40;45.20;;;;;;5090238;28;20059;-42
2021/04/20 09:05:48;;;;;;;5.18;3.13;;;20.40;45.10;;;;;;5091668;28;20036;-43
2021/04/20 09:08:40;;;;;;;4.80;3.25;;;20.40;45.20;;;;;;5090964;28;20039;-42
2021/04/20 09:11:11;;;;;;;4.78;3.03;;;20.40;45.20;;;;;;5090178;28;20388;-42
2021/04/20 09:13:59;;;;;;;7.10;3.38;;;20.40;45.20;;;;;;5091749;28;20032;-41
2021/04/20 09:16:33;;;;;;;4.50;3.42;;;20.50;45.30;;;;;;5090401;28;20031;-42
2021/04/20 09:19:01;;;;;;;3.53;2.85;;;20.50;45.20;;;;;;5090987;28;20032;-43
2021/04/20 09:21:42;;;;;;;4.18;2.90;;;20.50;45.30;;;;;;5091084;28;20106;-43
2021/04/20 09:24:15;;;;;;;3.50;3.03;;;20.50;45.30;;;;;;5090801;28;20016;-41
2021/04/20 09:26:47;;;;;;;3.92;3.10;;;20.50;45.30;;;;;;5091615;28;20035;-44
2021/04/20 09:29:28;;;;;;;4.85;3.28;;;20.50;45.30;;;;;;5090564;28;20028;-42
2021/04/20 09:32:04;;;;;;;3.50;3.00;;;20.50;45.40;;;;;;5090558;28;20071;-46
2021/04/20 09:34:34;;;;;;;4.90;3.03;;;20.50;45.30;;;;;;5091336;28;20027;-42
2021/04/20 09:37:02;;;;;;;3.30;2.42;;;20.50;45.30;;;;;;5090537;28;20032;-42
2021/04/20 09:39:31;;;;;;;4.28;2.90;;;20.50;45.40;;;;;;5090963;28;20579;-46
2021/04/20 09:42:01;;;;;;;5.57;2.88;;;20.50;45.40;;;;;;5090683;28;20489;-45
2021/04/20 09:44:56;;;;;;;2.80;2.50;;;20.50;45.40;;;;;;5091446;28;20027;-44
2021/04/20 09:47:51;;;;;;;8.10;3.25;;;20.60;45.50;;;;;;5090393;28;20028;-42
2021/04/20 09:50:30;;;;;;;3.50;3.20;;;20.50;45.40;;;;;;5088638;28;20040;-38
2021/04/20 09:53:14;;;;;;;3.50;2.50;;;20.50;45.40;;;;;;5086756;28;20028;-47
2021/04/20 09:55:47;;;;;;;2.80;2.42;;;20.50;45.40;;;;;;5083750;28;20056;-45
2021/04/20 09:58:15;;;;;;;4.13;3.10;;;20.60;45.50;;;;;;5080961;28;20028;-42
2021/04/20 10:00:42;;;;;;;2.58;2.35;;;20.60;45.40;;;;;;5091357;28;20032;-41
2021/04/20 10:03:32;;;;;;;4.43;2.90;;;20.60;45.40;;;;;;5089998;28;20044;-42
2021/04/20 10:06:23;;;;;;;3.50;3.17;;;20.60;45.50;;;;;;5090469;28;20020;-46
2021/04/20 10:09:22;;;;;;;4.35;2.85;;;20.60;45.80;;;;;;5084895;28;20024;-42
2021/04/20 10:11:57;;;;;;;5.07;2.40;;;20.70;45.90;;;;;;5083598;28;20024;-48
2021/04/20 10:14:41;;;;;;;3.97;2.78;;;20.70;46.60;;;;;;5090021;28;20024;-43
2021/04/20 10:17:16;;;;;;;3.85;2.80;;;20.70;46.90;;;;;;5090394;28;20401;-45
2021/04/20 10:19:51;;;;;;;4.63;2.90;;;20.70;47.30;;;;;;5090867;28;20047;-46
2021/04/20 10:22:28;;;;;;;4.82;2.85;;;20.70;47.60;;;;;;5090150;28;20020;-39
2021/04/20 10:25:25;;;;;;;3.30;2.58;;;20.70;47.80;;;;;;5089486;28;20031;-40
2021/04/20 10:28:05;;;;;;;3.63;2.80;;;20.70;48.00;;;;;;5091963;28;20028;-41
2021/04/20 10:30:34;;;;;;;4.70;2.72;;;20.70;48.10;;;;;;5094863;28;20032;-41
2021/04/20 10:33:01;;;;;;;3.88;3.00;;;20.70;48.00;;;;;;5093877;28;20028;-47
2021/04/20 10:35:29;;;;;;;4.47;2.70;;;20.70;48.00;;;;;;5094967;28;20024;-44
2021/04/20 10:37:59;;;;;;;3.38;2.40;;;20.80;48.30;;;;;;5092971;28;20027;-41
2021/04/20 10:40:34;;;;;;;3.10;2.55;;;20.70;48.00;;;;;;5093948;28;20036;-41
2021/04/20 10:43:31;;;;;;;3.50;2.67;;;20.70;48.10;;;;;;5093933;28;20115;-45
2021/04/20 10:46:06;;;;;;;6.82;3.10;;;20.80;48.30;;;;;;5089448;28;20399;-46
2021/04/20 10:48:32;;;;;;;14.05;8.20;;;20.70;47.70;;;;;;5086426;28;20405;-41
2021/04/20 10:50:58;;;;;;;11.60;8.25;;;20.50;43.30;;;;;;5093638;28;20036;-46
2021/04/20 10:53:32;;;;;;;12.70;9.07;;;19.90;42.00;;;;;;5093163;28;20085;-43
2021/04/20 10:56:12;;;;;;;13.55;9.63;;;19.60;43.10;;;;;;5089763;28;20035;-44
2021/04/20 10:58:44;;;;;;;13.25;9.85;;;19.30;42.40;;;;;;5094402;28;20039;-46
2021/04/20 11:01:14;;;;;;;13.65;8.95;;;19.30;42.40;;;;;;5093341;28;20024;-45
2021/04/20 11:03:41;;;;;;;11.98;8.23;;;19.20;42.10;;;;;;5093791;28;20047;-42
2021/04/20 11:06:26;;;;;;;12.38;7.85;;;19.00;41.40;;;;;;5092900;28;20469;-44
2021/04/20 11:08:52;;;;;;;11.20;7.90;;;18.90;41.70;;;;;;5093253;28;20055;-43
2021/04/20 11:11:19;;;;;;;9.70;7.45;;;19.00;41.40;;;;;;5093179;28;20064;-42
2021/04/20 11:13:45;;;;;;;11.07;7.63;;;19.00;41.30;;;;;;5093564;28;20035;-45
2021/04/20 11:16:12;;;;;;;11.10;7.68;;;18.90;41.20;;;;;;5093017;28;20431;-44
2021/04/20 11:18:43;;;;;;;11.80;8.55;;;19.00;41.80;;;;;;5093627;28;20384;-44
2021/04/20 11:21:17;;;;;;;11.38;7.47;;;18.90;41.50;;;;;;5092950;28;20109;-43
2021/04/20 11:23:53;;;;;;;11.73;8.20;;;19.00;41.50;;;;;;5086114;28;20062;-44
2021/04/20 11:26:23;;;;;;;11.15;8.10;;;19.00;41.60;;;;;;5092936;28;20031;-45
2021/04/20 11:28:53;;;;;;;15.63;8.68;;;18.90;42.00;;;;;;5092603;28;20055;-41
2021/04/20 11:31:18;;;;;;;14.25;8.35;;;18.70;42.00;;;;;;5092731;28;20114;-44
2021/04/20 11:33:47;;;;;;;16.10;9.60;;;18.80;42.20;;;;;;5093348;28;20445;-44
2021/04/20 11:36:20;;;;;;;11.35;8.55;;;18.90;42.70;;;;;;5092550;28;20035;-42
2021/04/20 11:38:48;;;;;;;11.57;8.13;;;18.90;42.60;;;;;;5092804;28;20032;-44
2021/04/20 11:41:20;;;;;;;11.07;8.13;;;18.90;42.50;;;;;;5091872;28;20389;-42
2021/04/20 11:43:54;;;;;;;9.90;7.30;;;19.00;42.40;;;;;;5093169;28;20028;-44
2021/04/20 11:46:22;;;;;;;13.00;8.13;;;19.00;41.20;;;;;;5084879;28;20812;-42
2021/04/20 11:48:52;;;;;;;11.60;7.03;;;18.80;40.10;;;;;;5093283;28;20027;-42
2021/04/20 11:51:18;;;;;;;10.57;7.20;;;18.80;40.40;;;;;;5091936;28;20067;-42
2021/04/20 11:53:48;;;;;;;11.20;6.82;;;18.90;40.50;;;;;;5092992;28;20032;-46
2021/04/20 11:56:15;;;;;;;10.07;5.63;;;18.90;40.60;;;;;;5092237;28;20020;-42
2021/04/20 11:58:43;;;;;;;7.72;6.07;;;18.90;39.80;;;;;;5093139;28;20036;-42
2021/04/20 12:01:13;;;;;;;8.27;6.18;;;18.90;39.70;;;;;;5091908;28;20036;-40
2021/04/20 12:03:54;;;;;;;7.28;4.53;;;18.80;39.70;;;;;;5091227;28;20058;-42
2021/04/20 12:06:24;;;;;;;6.68;4.20;;;19.10;39.90;;;;;;5092057;28;20031;-43
2021/04/20 12:08:56;;;;;;;4.88;3.72;;;19.40;40.10;;;;;;5092902;28;20035;-47
2021/04/20 12:11:27;;;;;;;5.00;3.63;;;19.60;40.20;;;;;;5086305;28;20036;-47
2021/04/20 12:13:54;;;;;;;4.60;3.23;;;19.80;40.20;;;;;;5092103;28;20044;-43
2021/04/20 12:16:20;;;;;;;4.68;2.97;;;19.90;40.20;;;;;;5091648;28;20035;-44
2021/04/20 12:18:47;;;;;;;4.22;3.10;;;20.00;40.30;;;;;;5092675;28;20028;-43
2021/04/20 12:21:36;;;;;;;5.55;2.95;;;20.00;40.40;;;;;;5091430;28;20028;-45
2021/04/20 12:24:03;;;;;;;4.90;2.90;;;20.10;40.60;;;;;;5092571;28;20028;-46
2021/04/20 12:26:33;;;;;;;4.18;2.92;;;20.10;40.70;;;;;;5091246;28;20030;-45
2021/04/20 12:29:04;;;;;;;4.07;2.85;;;20.10;40.80;;;;;;5092478;28;20082;-44
2021/04/20 12:31:32;;;;;;;3.08;2.70;;;20.10;40.80;;;;;;5092197;28;20089;-42
2021/04/20 12:33:59;;;;;;;3.65;2.38;;;20.20;40.90;;;;;;5091834;28;20514;-44
2021/04/20 12:36:27;;;;;;;2.42;2.05;;;20.20;41.10;;;;;;5090279;28;20618;-42
2021/04/20 12:38:57;;;;;;;3.35;2.30;;;20.20;41.10;;;;;;5092057;28;20073;-42
2021/04/20 12:41:23;;;;;;;2.53;2.15;;;20.20;41.10;;;;;;5091061;28;20594;-41
2021/04/20 12:43:54;;;;;;;2.90;2.30;;;20.30;41.30;;;;;;5092208;28;20031;-44
2021/04/20 12:46:24;;;;;;;4.70;2.60;;;20.30;41.30;;;;;;5091077;28;20020;-44
2021/04/20 12:48:54;;;;;;;3.20;2.40;;;20.30;41.40;;;;;;5091559;28;20274;-42
2021/04/20 12:51:21;;;;;;;3.13;2.35;;;20.30;41.50;;;;;;5083137;28;20435;-42
2021/04/20 12:53:48;;;;;;;2.92;2.33;;;20.30;41.50;;;;;;5092045;28;20028;-39
2021/04/20 12:56:33;;;;;;;2.88;2.22;;;20.40;41.60;;;;;;5090576;28;20496;-39
2021/04/20 12:59:03;;;;;;;3.60;2.60;;;20.40;41.70;;;;;;5092406;28;20039;-38
2021/04/20 13:01:29;;;;;;;2.30;2.10;;;20.40;41.70;;;;;;5091225;28;20028;-42
2021/04/20 13:03:55;;;;;;;2.95;2.10;;;20.40;41.80;;;;;;5091871;28;20499;-40
2021/04/20 13:06:22;;;;;;;3.15;2.33;;;20.40;41.80;;;;;;5090514;28;20114;-43
2021/04/20 13:08:53;;;;;;;2.75;1.85;;;20.40;41.80;;;;;;5091991;28;20032;-40